createdAt,value
2022-12-23T00:00:30.739Z,19.98
2022-12-23T00:01:33.350Z,20.31
2022-12-23T00:02:36.253Z,18.67
2022-12-23T00:03:39.241Z,20.18
2022-12-23T00:04:42.271Z,18.47
2022-12-23T00:05:44.753Z,16.26
2022-12-23T00:06:47.700Z,21.66
2022-12-23T00:07:50.243Z,20.39
2022-12-23T00:08:52.782Z,18.73
2022-12-23T00:09:55.341Z,18.67
2022-12-23T00:10:58.403Z,22.16
2022-12-23T00:12:00.927Z,18.87
2022-12-23T00:13:03.472Z,16.86
2022-12-23T00:14:06.023Z,18.77
2022-12-23T00:15:08.818Z,21.19
2022-12-23T00:16:12.387Z,17.46
2022-12-23T00:17:22.475Z,18.02
2022-12-23T00:18:19.423Z,17.27
2022-12-23T00:19:21.979Z,17.29
2022-12-23T00:20:24.959Z,18.20
2022-12-23T00:21:27.560Z,21.13
2022-12-23T00:22:30.134Z,15.95
2022-12-23T00:23:32.875Z,22.51
2022-12-23T00:24:35.468Z,20.65
2022-12-23T00:25:38.044Z,19.00
2022-12-23T00:26:40.890Z,23.78
2022-12-23T00:27:43.620Z,17.74
2022-12-23T00:28:46.165Z,21.21
2022-12-23T00:29:48.743Z,18.63
2022-12-23T00:30:51.533Z,22.36
2022-12-23T00:31:54.165Z,21.29
2022-12-23T00:32:56.813Z,23.54
2022-12-23T00:33:59.358Z,16.94
2022-12-23T00:35:01.888Z,22.11
2022-12-23T00:36:04.613Z,23.95
2022-12-23T00:37:07.184Z,17.45
2022-12-23T00:38:09.724Z,17.86
2022-12-23T00:39:12.337Z,19.95
2022-12-23T00:40:15.588Z,19.31
2022-12-23T00:41:18.169Z,21.71
2022-12-23T00:42:20.772Z,21.79
2022-12-23T00:43:23.313Z,17.05
2022-12-23T00:44:25.855Z,18.45
2022-12-23T00:45:28.432Z,20.24
2022-12-23T00:46:31.802Z,23.11
2022-12-23T00:47:34.521Z,19.67
2022-12-23T00:48:37.053Z,21.34
2022-12-23T00:49:40.060Z,23.64
2022-12-23T00:50:43.252Z,18.55
2022-12-23T00:51:45.773Z,16.29
2022-12-23T00:52:48.296Z,17.73
2022-12-23T00:53:50.844Z,19.27
2022-12-23T00:54:53.415Z,16.95
2022-12-23T00:55:55.946Z,22.03
2022-12-23T00:56:58.938Z,17.61
2022-12-23T00:58:01.524Z,19.66
2022-12-23T00:59:04.064Z,17.09
2022-12-23T01:00:06.921Z,17.82
2022-12-23T01:01:09.547Z,20.15
2022-12-23T01:02:12.339Z,18.35
2022-12-23T01:03:15.318Z,18.45
2022-12-23T01:04:18.159Z,20.17
2022-12-23T01:05:20.961Z,18.05
2022-12-23T01:06:24.127Z,26.64
2022-12-23T01:07:26.679Z,21.91
2022-12-23T01:08:29.208Z,23.11
2022-12-23T01:09:31.645Z,17.15
2022-12-23T01:10:34.488Z,19.24
2022-12-23T01:11:37.045Z,21.44
2022-12-23T01:12:39.639Z,20.53
2022-12-23T01:13:42.125Z,17.26
2022-12-23T01:14:44.863Z,23.15
2022-12-23T01:15:47.410Z,17.79
2022-12-23T01:16:50.213Z,11.50
2022-12-23T01:17:52.918Z,14.84
2022-12-23T01:18:55.471Z,20.29
2022-12-23T01:19:58.013Z,17.92
2022-12-23T01:21:00.865Z,15.63
2022-12-23T01:22:03.396Z,17.61
2022-12-23T01:23:05.979Z,19.97
2022-12-23T01:24:08.553Z,21.60
2022-12-23T01:25:11.093Z,18.30
2022-12-23T01:26:14.255Z,23.25
2022-12-23T01:27:17.089Z,22.57
2022-12-23T01:28:19.656Z,20.72
2022-12-23T01:29:22.215Z,19.21
2022-12-23T01:30:24.850Z,20.41
2022-12-23T01:31:27.678Z,18.03
2022-12-23T01:32:30.540Z,20.88
2022-12-23T01:33:33.147Z,16.80
2022-12-23T01:34:37.579Z,18.19
2022-12-23T01:35:40.322Z,21.35
2022-12-23T01:36:43.362Z,19.39
2022-12-23T01:37:45.939Z,19.94
2022-12-23T01:38:48.531Z,17.41
2022-12-23T01:39:51.107Z,20.40
2022-12-23T01:40:54.049Z,16.92
2022-12-23T01:41:56.595Z,18.51
2022-12-23T01:42:59.126Z,23.11
2022-12-23T01:44:01.688Z,20.72
2022-12-23T01:45:04.479Z,19.14
2022-12-23T01:46:07.767Z,22.21
2022-12-23T01:47:10.356Z,18.87
2022-12-23T01:48:12.930Z,17.81
2022-12-23T01:49:15.757Z,23.59
2022-12-23T01:50:18.424Z,21.35
2022-12-23T01:51:20.939Z,17.66
2022-12-23T01:52:23.495Z,18.37
2022-12-23T01:53:26.033Z,18.57
2022-12-23T01:54:28.601Z,18.03
2022-12-23T01:55:31.182Z,19.32
2022-12-23T01:56:33.819Z,21.27
2022-12-23T01:57:36.346Z,19.94
2022-12-23T01:58:38.913Z,20.45
2022-12-23T01:59:41.482Z,18.57
2022-12-23T02:00:44.122Z,21.91
2022-12-23T02:01:46.794Z,18.63
2022-12-23T02:02:49.629Z,19.05
2022-12-23T02:03:52.465Z,25.54
2022-12-23T02:04:55.040Z,18.79
2022-12-23T02:05:57.580Z,24.24
2022-12-23T02:07:00.405Z,23.74
2022-12-23T02:08:02.934Z,18.87
2022-12-23T02:09:05.376Z,18.55
2022-12-23T02:10:08.499Z,21.97
2022-12-23T02:11:10.998Z,21.60
2022-12-23T02:12:13.565Z,22.37
2022-12-23T02:13:16.097Z,19.74
2022-12-23T02:14:18.630Z,19.92
2022-12-23T02:15:21.196Z,17.27
2022-12-23T02:16:23.870Z,22.05
2022-12-23T02:17:26.574Z,20.11
2022-12-23T02:18:29.172Z,26.11
2022-12-23T02:19:31.962Z,21.04
2022-12-23T02:20:34.608Z,13.91
2022-12-23T02:21:37.151Z,20.72
2022-12-23T02:22:39.906Z,21.29
2022-12-23T02:23:42.470Z,17.03
2022-12-23T02:24:44.999Z,19.10
2022-12-23T02:25:47.583Z,22.46
2022-12-23T02:26:50.276Z,18.75
2022-12-23T02:27:52.814Z,17.45
2022-12-23T02:28:55.343Z,19.17
2022-12-23T02:29:57.899Z,19.31
2022-12-23T02:31:00.707Z,19.27
2022-12-23T02:32:03.202Z,20.75
2022-12-23T02:33:05.814Z,19.82
2022-12-23T02:34:08.328Z,18.77
2022-12-23T02:35:10.863Z,17.14
2022-12-23T02:36:13.764Z,20.72
2022-12-23T02:37:16.314Z,17.42
2022-12-23T02:38:18.880Z,17.11
2022-12-23T02:39:21.370Z,17.43
2022-12-23T02:40:24.029Z,19.05
2022-12-23T02:41:26.577Z,19.39
2022-12-23T02:42:29.119Z,17.30
2022-12-23T02:43:31.645Z,25.42
2022-12-23T02:44:34.329Z,17.80
2022-12-23T02:45:36.855Z,18.81
2022-12-23T02:46:39.776Z,17.75
2022-12-23T02:47:42.291Z,18.03
2022-12-23T02:48:44.798Z,21.29
2022-12-23T02:49:47.345Z,18.76
2022-12-23T02:50:50.715Z,17.43
2022-12-23T02:51:53.310Z,17.12
2022-12-23T02:52:55.905Z,19.28
2022-12-23T02:53:58.435Z,16.84
2022-12-23T02:55:01.290Z,20.27
2022-12-23T02:56:04.047Z,15.38
2022-12-23T02:57:06.618Z,18.02
2022-12-23T02:58:09.149Z,15.96
2022-12-23T02:59:11.879Z,17.06
2022-12-23T03:00:14.728Z,17.44
2022-12-23T03:01:17.342Z,14.65
2022-12-23T03:02:20.365Z,19.96
2022-12-23T03:03:23.167Z,16.16
2022-12-23T03:04:25.697Z,16.17
2022-12-23T03:05:28.149Z,14.35
2022-12-23T03:06:30.790Z,15.41
2022-12-23T03:07:33.361Z,17.47
2022-12-23T03:08:35.916Z,15.16
2022-12-23T03:09:38.417Z,15.91
2022-12-23T03:10:41.153Z,14.31
2022-12-23T03:11:43.763Z,19.01
2022-12-23T03:12:46.286Z,15.06
2022-12-23T03:13:48.826Z,13.65
2022-12-23T03:14:51.454Z,14.47
2022-12-23T03:15:54.052Z,14.43
2022-12-23T03:16:57.139Z,14.87
2022-12-23T03:17:59.728Z,14.18
2022-12-23T03:19:02.525Z,15.10
2022-12-23T03:20:05.127Z,10.07
2022-12-23T03:21:07.974Z,16.81
2022-12-23T03:22:10.512Z,14.38
2022-12-23T03:23:13.094Z,14.45
2022-12-23T03:24:15.636Z,12.16
2022-12-23T03:25:18.185Z,12.51
2022-12-23T03:26:20.818Z,13.02
2022-12-23T03:27:23.355Z,13.76
2022-12-23T03:28:25.920Z,12.21
2022-12-23T03:29:28.451Z,12.22
2022-12-23T03:30:31.183Z,12.10
2022-12-23T03:31:33.815Z,13.49
2022-12-23T03:32:36.581Z,12.60
2022-12-23T03:33:39.206Z,15.23
2022-12-23T03:34:41.699Z,15.19
2022-12-23T03:35:44.242Z,11.81
2022-12-23T03:36:47.608Z,12.85
2022-12-23T03:37:50.140Z,12.81
2022-12-23T03:38:52.743Z,11.93
2022-12-23T03:39:55.310Z,11.79
2022-12-23T03:40:58.580Z,12.36
2022-12-23T03:42:01.113Z,15.49
2022-12-23T03:43:03.657Z,12.33
2022-12-23T03:44:06.255Z,12.09
2022-12-23T03:45:37.407Z,10.64
2022-12-23T03:46:13.782Z,15.31
2022-12-23T03:47:16.272Z,10.97
2022-12-23T03:48:18.825Z,12.43
2022-12-23T03:49:21.458Z,10.95
2022-12-23T03:50:24.052Z,11.03
2022-12-23T03:51:26.599Z,13.35
2022-12-23T03:52:29.139Z,12.22
2022-12-23T03:53:31.663Z,11.60
2022-12-23T03:54:34.232Z,11.49
2022-12-23T03:55:36.779Z,10.75
2022-12-23T03:56:39.811Z,9.39
2022-12-23T03:57:42.358Z,11.05
2022-12-23T03:58:44.878Z,9.11
2022-12-23T03:59:47.462Z,8.69
2022-12-23T04:00:50.211Z,11.08
2022-12-23T04:01:52.887Z,8.55
2022-12-23T04:02:55.703Z,8.71
2022-12-23T04:03:58.519Z,11.86
2022-12-23T04:05:01.195Z,12.95
2022-12-23T04:06:03.819Z,9.71
2022-12-23T04:07:06.288Z,11.88
2022-12-23T04:08:08.878Z,10.47
2022-12-23T04:09:14.353Z,11.11
2022-12-23T04:10:16.086Z,9.09
2022-12-23T04:11:18.635Z,8.99
2022-12-23T04:12:21.163Z,8.80
2022-12-23T04:13:23.686Z,10.53
2022-12-23T04:14:26.230Z,10.51
2022-12-23T04:15:28.782Z,11.11
2022-12-23T04:16:31.480Z,12.33
2022-12-23T04:17:34.146Z,9.89
2022-12-23T04:18:36.586Z,9.55
2022-12-23T04:19:39.127Z,8.53
2022-12-23T04:20:41.797Z,11.67
2022-12-23T04:21:44.331Z,9.17
2022-12-23T04:22:46.873Z,13.66
2022-12-23T04:23:49.489Z,8.03
2022-12-23T04:24:52.024Z,10.10
2022-12-23T04:25:54.606Z,9.15
2022-12-23T04:26:57.536Z,11.43
2022-12-23T04:28:00.107Z,8.56
2022-12-23T04:29:02.608Z,10.09
2022-12-23T04:30:05.550Z,13.34
2022-12-23T04:31:08.168Z,10.43
2022-12-23T04:32:10.897Z,9.89
2022-12-23T04:33:13.487Z,10.73
2022-12-23T04:34:15.968Z,10.41
2022-12-23T04:35:18.507Z,11.72
2022-12-23T04:36:21.325Z,10.92
2022-12-23T04:37:23.859Z,9.30
2022-12-23T04:38:26.415Z,8.83
2022-12-23T04:39:28.945Z,10.39
2022-12-23T04:40:32.205Z,11.88
2022-12-23T04:41:34.793Z,12.35
2022-12-23T04:42:37.357Z,8.71
2022-12-23T04:43:39.931Z,11.57
2022-12-23T04:44:42.514Z,7.95
2022-12-23T04:45:45.048Z,12.73
2022-12-23T04:46:47.964Z,32.92
2022-12-23T04:47:50.564Z,9.37
2022-12-23T04:48:53.127Z,10.39
2022-12-23T04:49:55.662Z,10.64
2022-12-23T04:50:58.541Z,10.31
2022-12-23T04:52:01.318Z,8.98
2022-12-23T04:53:03.962Z,13.75
2022-12-23T04:54:06.522Z,8.53
2022-12-23T04:55:09.050Z,11.69
2022-12-23T04:56:12.609Z,10.64
2022-12-23T04:57:15.244Z,11.01
2022-12-23T04:58:17.753Z,9.79
2022-12-23T04:59:20.601Z,11.56
2022-12-23T05:00:23.543Z,9.97
2022-12-23T05:01:26.199Z,8.49
2022-12-23T05:02:29.019Z,9.38
2022-12-23T05:03:31.914Z,9.79
2022-12-23T05:04:34.617Z,9.99
2022-12-23T05:05:37.505Z,10.11
2022-12-23T05:06:40.451Z,9.13
2022-12-23T05:07:43.085Z,9.13
2022-12-23T05:08:45.631Z,11.33
2022-12-23T05:09:48.169Z,13.07
2022-12-23T05:10:50.823Z,10.76
2022-12-23T05:11:53.407Z,11.43
2022-12-23T05:12:55.928Z,11.44
2022-12-23T05:13:58.480Z,9.38
2022-12-23T05:15:00.997Z,10.87
2022-12-23T05:16:03.617Z,11.15
2022-12-23T05:17:07.933Z,11.34
2022-12-23T05:18:10.702Z,8.89
2022-12-23T05:19:13.243Z,10.75
2022-12-23T05:20:16.108Z,8.84
2022-12-23T05:21:18.631Z,9.25
2022-12-23T05:22:21.172Z,10.81
2022-12-23T05:23:23.735Z,9.79
2022-12-23T05:24:26.280Z,8.43
2022-12-23T05:25:28.979Z,12.21
2022-12-23T05:26:31.506Z,12.06
2022-12-23T05:27:34.078Z,14.58
2022-12-23T05:28:36.909Z,15.65
2022-12-23T05:29:39.464Z,9.97
2022-12-23T05:30:42.827Z,15.52
2022-12-23T05:31:45.432Z,10.93
2022-12-23T05:32:48.104Z,17.17
2022-12-23T05:33:50.767Z,34.07
2022-12-23T05:34:55.167Z,26.36
2022-12-23T05:35:57.709Z,19.04
2022-12-23T05:37:00.686Z,17.51
2022-12-23T05:38:03.226Z,12.80
2022-12-23T05:39:05.788Z,19.67
2022-12-23T05:40:09.297Z,14.79
2022-12-23T05:41:12.236Z,16.53
2022-12-23T05:42:14.852Z,16.85
2022-12-23T05:43:17.362Z,17.03
2022-12-23T05:44:19.975Z,16.90
2022-12-23T05:45:22.522Z,13.45
2022-12-23T05:46:27.089Z,13.01
2022-12-23T05:47:29.632Z,15.24
2022-12-23T05:48:32.170Z,20.01
2022-12-23T05:49:34.785Z,13.88
2022-12-23T05:50:37.496Z,12.30
2022-12-23T05:51:40.032Z,13.10
2022-12-23T05:52:42.578Z,13.52
2022-12-23T05:53:45.211Z,14.75
2022-12-23T05:54:47.930Z,12.89
2022-12-23T05:55:50.528Z,15.38
2022-12-23T05:56:53.493Z,11.31
2022-12-23T05:57:56.024Z,10.77
2022-12-23T05:58:58.559Z,12.57
2022-12-23T06:00:01.173Z,15.99
2022-12-23T06:01:03.689Z,11.29
2022-12-23T06:02:06.525Z,13.30
2022-12-23T06:03:09.432Z,19.36
2022-12-23T06:04:12.324Z,15.31
2022-12-23T06:05:19.965Z,15.93
2022-12-23T06:06:22.705Z,16.66
2022-12-23T06:07:25.301Z,13.84
2022-12-23T06:08:27.811Z,13.64
2022-12-23T06:09:30.337Z,10.47
2022-12-23T06:10:33.185Z,14.59
2022-12-23T06:11:35.738Z,12.70
2022-12-23T06:12:38.272Z,14.68
2022-12-23T06:13:40.806Z,11.25
2022-12-23T06:14:43.354Z,13.73
2022-12-23T06:15:45.919Z,8.49
2022-12-23T06:16:48.883Z,12.44
2022-12-23T06:17:51.411Z,13.27
2022-12-23T06:18:53.936Z,11.04
2022-12-23T06:19:56.471Z,17.78
2022-12-23T06:20:59.564Z,13.78
2022-12-23T06:22:02.093Z,14.23
2022-12-23T06:23:04.644Z,14.06
2022-12-23T06:24:07.164Z,10.67
2022-12-23T06:25:09.706Z,9.77
2022-12-23T06:26:14.016Z,13.96
2022-12-23T06:27:16.563Z,12.33
2022-12-23T06:28:19.136Z,11.92
2022-12-23T06:29:21.675Z,12.51
2022-12-23T06:30:24.416Z,12.18
2022-12-23T06:31:27.045Z,9.92
2022-12-23T06:32:34.545Z,10.26
2022-12-23T06:33:33.955Z,10.97
2022-12-23T06:34:36.470Z,10.59
2022-12-23T06:35:39.096Z,10.45
2022-12-23T06:36:41.721Z,10.87
2022-12-23T06:37:44.268Z,13.36
2022-12-23T06:38:46.807Z,11.53
2022-12-23T06:39:49.349Z,13.17
2022-12-23T06:40:52.107Z,12.96
2022-12-23T06:41:54.663Z,10.17
2022-12-23T06:42:57.198Z,11.01
2022-12-23T06:43:59.749Z,11.54
2022-12-23T06:45:02.275Z,13.57
2022-12-23T06:46:05.244Z,10.32
2022-12-23T06:47:08.089Z,14.41
2022-12-23T06:48:10.788Z,13.75
2022-12-23T06:49:13.963Z,11.42
2022-12-23T06:50:17.011Z,11.38
2022-12-23T06:51:19.444Z,11.53
2022-12-23T06:52:22.014Z,11.86
2022-12-23T06:53:24.584Z,10.51
2022-12-23T06:54:27.115Z,12.26
2022-12-23T06:55:29.648Z,9.26
2022-12-23T06:56:32.397Z,10.44
2022-12-23T06:57:34.963Z,11.19
2022-12-23T06:58:37.489Z,11.61
2022-12-23T06:59:40.107Z,9.19
2022-12-23T07:00:43.122Z,10.66
2022-12-23T07:01:45.753Z,12.47
2022-12-23T07:02:48.721Z,13.44
2022-12-23T07:03:51.410Z,11.85
2022-12-23T07:04:54.285Z,9.71
2022-12-23T07:05:56.813Z,11.57
2022-12-23T07:06:59.894Z,13.89
2022-12-23T07:08:02.470Z,11.67
2022-12-23T07:09:05.002Z,12.28
2022-12-23T07:10:08.362Z,10.85
2022-12-23T07:11:10.940Z,11.64
2022-12-23T07:12:13.629Z,10.58
2022-12-23T07:13:16.185Z,10.31
2022-12-23T07:14:18.733Z,12.32
2022-12-23T07:15:21.271Z,11.25
2022-12-23T07:16:24.033Z,16.36
2022-12-23T07:17:26.738Z,10.65
2022-12-23T07:18:29.436Z,12.65
2022-12-23T07:19:31.965Z,9.84
2022-12-23T07:20:34.727Z,11.44
2022-12-23T07:21:37.254Z,7.73
2022-12-23T07:22:39.825Z,11.79
2022-12-23T07:23:42.522Z,9.82
2022-12-23T07:24:45.064Z,14.50
2022-12-23T07:25:47.614Z,11.12
2022-12-23T07:26:50.455Z,11.27
2022-12-23T07:27:53.042Z,10.67
2022-12-23T07:28:55.565Z,11.96
2022-12-23T07:29:58.173Z,15.01
2022-12-23T07:31:01.454Z,12.33
2022-12-23T07:32:04.130Z,10.62
2022-12-23T07:33:07.088Z,14.14
2022-12-23T07:34:09.661Z,9.32
2022-12-23T07:35:12.206Z,8.88
2022-12-23T07:36:15.650Z,10.61
2022-12-23T07:37:18.191Z,11.15
2022-12-23T07:38:20.761Z,10.66
2022-12-23T07:39:23.334Z,11.45
2022-12-23T07:40:26.368Z,13.94
2022-12-23T07:41:28.903Z,11.39
2022-12-23T07:42:45.113Z,18.75
2022-12-23T07:43:35.831Z,19.05
2022-12-23T07:44:38.421Z,19.82
2022-12-23T07:45:41.032Z,17.98
2022-12-23T07:46:44.074Z,20.46
2022-12-23T07:47:46.914Z,18.03
2022-12-23T07:48:49.466Z,25.21
2022-12-23T07:49:52.074Z,18.32
2022-12-23T07:50:54.851Z,23.48
2022-12-23T07:51:57.282Z,20.76
2022-12-23T07:52:59.722Z,18.58
2022-12-23T07:54:02.261Z,20.68
2022-12-23T07:55:04.866Z,16.49
2022-12-23T07:56:07.930Z,19.49
2022-12-23T07:57:10.437Z,18.81
2022-12-23T07:58:13.037Z,17.25
2022-12-23T07:59:15.610Z,23.14
2022-12-23T08:00:18.318Z,18.09
2022-12-23T08:01:20.913Z,18.37
2022-12-23T08:02:23.927Z,20.28
2022-12-23T08:03:26.695Z,15.94
2022-12-23T08:04:29.205Z,16.98
2022-12-23T08:05:31.826Z,14.40
2022-12-23T08:06:34.616Z,21.94
2022-12-23T08:07:37.162Z,21.17
2022-12-23T08:08:39.679Z,17.35
2022-12-23T08:09:42.249Z,14.64
2022-12-23T08:10:48.421Z,14.26
2022-12-23T08:11:49.639Z,16.65
2022-12-23T08:12:52.190Z,15.80
2022-12-23T08:13:54.697Z,16.95
2022-12-23T08:14:57.223Z,21.19
2022-12-23T08:15:59.735Z,16.08
2022-12-23T08:17:02.297Z,14.37
2022-12-23T08:18:04.863Z,15.83
2022-12-23T08:19:07.392Z,12.73
2022-12-23T08:20:10.834Z,13.93
2022-12-23T08:21:13.443Z,14.53
2022-12-23T08:22:16.029Z,13.91
2022-12-23T08:23:23.019Z,11.84
2022-12-23T08:24:22.923Z,14.83
2022-12-23T08:25:25.464Z,19.34
2022-12-23T08:26:28.780Z,18.67
2022-12-23T08:27:31.260Z,15.71
2022-12-23T08:28:33.791Z,12.15
2022-12-23T08:29:36.751Z,16.25
2022-12-23T08:30:40.059Z,15.56
2022-12-23T08:31:42.677Z,17.47
2022-12-23T08:32:45.227Z,14.73
2022-12-23T08:33:47.761Z,13.63
2022-12-23T08:34:50.291Z,18.43
2022-12-23T08:35:52.724Z,20.11
2022-12-23T08:36:55.407Z,15.15
2022-12-23T08:37:57.934Z,20.15
2022-12-23T08:39:00.463Z,16.14
2022-12-23T08:40:03.129Z,23.89
2022-12-23T08:41:05.667Z,13.65
2022-12-23T08:42:08.239Z,18.72
2022-12-23T08:43:10.770Z,13.28
2022-12-23T08:44:13.514Z,14.14
2022-12-23T08:45:16.052Z,16.45
2022-12-23T08:46:18.900Z,14.54
2022-12-23T08:47:21.486Z,31.00
2022-12-23T08:48:24.025Z,11.93
2022-12-23T08:49:26.559Z,21.17
2022-12-23T08:50:29.529Z,16.77
2022-12-23T08:51:32.496Z,14.31
2022-12-23T08:52:35.115Z,14.93
2022-12-23T08:53:37.624Z,19.29
2022-12-23T08:54:40.230Z,19.31
2022-12-23T08:55:42.889Z,20.43
2022-12-23T08:56:45.759Z,22.41
2022-12-23T08:57:48.322Z,16.65
2022-12-23T08:58:50.863Z,18.41
2022-12-23T08:59:53.398Z,14.86
2022-12-23T09:00:56.152Z,11.78
2022-12-23T09:01:58.837Z,23.44
2022-12-23T09:03:01.662Z,15.10
2022-12-23T09:04:04.584Z,15.23
2022-12-23T09:05:07.285Z,13.85
2022-12-23T09:06:10.488Z,12.14
2022-12-23T09:07:13.024Z,17.97
2022-12-23T09:08:16.035Z,16.16
2022-12-23T09:09:18.592Z,15.15
2022-12-23T09:10:21.432Z,15.66
2022-12-23T09:11:24.337Z,13.94
2022-12-23T09:12:27.053Z,19.07
2022-12-23T09:13:35.224Z,14.11
2022-12-23T09:14:33.979Z,15.96
2022-12-23T09:15:36.960Z,22.29
2022-12-23T09:16:40.195Z,21.96
2022-12-23T09:17:42.717Z,21.68
2022-12-23T09:18:45.292Z,29.39
2022-12-23T09:19:52.694Z,16.41
2022-12-23T09:20:52.416Z,15.13
2022-12-23T09:21:54.978Z,16.79
2022-12-23T09:22:57.517Z,17.04
2022-12-23T09:24:00.097Z,13.43
2022-12-23T09:25:05.330Z,18.55
2022-12-23T09:26:07.986Z,17.44
2022-12-23T09:27:10.527Z,17.89
2022-12-23T09:28:13.062Z,22.35
2022-12-23T09:29:15.757Z,19.41
2022-12-23T09:30:18.593Z,20.24
2022-12-23T09:31:21.281Z,24.13
2022-12-23T09:32:23.923Z,25.69
2022-12-23T09:33:26.462Z,20.21
2022-12-23T09:34:29.038Z,29.70
2022-12-23T09:35:31.575Z,31.85
2022-12-23T09:36:34.338Z,17.07
2022-12-23T09:37:36.878Z,21.11
2022-12-23T09:38:39.404Z,19.80
2022-12-23T09:39:41.973Z,16.98
2022-12-23T09:40:44.713Z,15.06
2022-12-23T09:41:47.253Z,20.78
2022-12-23T09:42:50.091Z,15.81
2022-12-23T09:43:52.663Z,19.91
2022-12-23T09:44:55.213Z,14.80
2022-12-23T09:45:57.815Z,18.57
2022-12-23T09:47:00.747Z,20.36
2022-12-23T09:48:03.372Z,14.07
2022-12-23T09:49:05.928Z,11.89
2022-12-23T09:50:08.981Z,13.96
2022-12-23T09:51:11.546Z,15.21
2022-12-23T09:52:14.073Z,12.01
2022-12-23T09:53:16.612Z,11.17
2022-12-23T09:54:19.160Z,12.56
2022-12-23T09:55:21.760Z,11.23
2022-12-23T09:56:24.363Z,12.85
2022-12-23T09:57:26.881Z,11.02
2022-12-23T09:58:29.443Z,12.31
2022-12-23T09:59:32.080Z,12.66
2022-12-23T10:00:34.777Z,13.18
2022-12-23T10:01:43.005Z,15.83
2022-12-23T10:02:41.843Z,15.52
2022-12-23T10:03:45.073Z,13.14
2022-12-23T10:04:47.899Z,13.89
2022-12-23T10:05:50.653Z,13.66
2022-12-23T10:06:56.335Z,13.78
2022-12-23T10:07:57.995Z,13.95
2022-12-23T10:09:00.540Z,14.00
2022-12-23T10:10:03.389Z,10.98
2022-12-23T10:11:05.962Z,11.95
2022-12-23T10:12:08.477Z,13.53
2022-12-23T10:13:11.303Z,12.07
2022-12-23T10:14:13.840Z,13.04
2022-12-23T10:15:16.397Z,12.98
2022-12-23T10:16:19.205Z,11.28
2022-12-23T10:17:21.989Z,12.97
2022-12-23T10:18:24.590Z,13.63
2022-12-23T10:19:27.158Z,11.03
2022-12-23T10:20:30.126Z,13.60
2022-12-23T10:21:32.726Z,13.37
2022-12-23T10:22:35.423Z,11.41
2022-12-23T10:23:39.777Z,13.69
2022-12-23T10:24:42.363Z,13.46
2022-12-23T10:25:44.974Z,14.19
2022-12-23T10:26:47.963Z,13.43
2022-12-23T10:27:50.511Z,12.17
2022-12-23T10:28:53.240Z,11.89
2022-12-23T10:29:55.772Z,16.51
2022-12-23T10:31:23.731Z,12.82
2022-12-23T10:32:03.076Z,15.67
2022-12-23T10:33:05.863Z,13.84
2022-12-23T10:34:08.410Z,13.01
2022-12-23T10:35:10.945Z,23.49
2022-12-23T10:36:13.914Z,26.81
2022-12-23T10:37:16.508Z,19.85
2022-12-23T10:38:19.011Z,18.77
2022-12-23T10:39:21.568Z,15.86
2022-12-23T10:40:24.551Z,26.99
2022-12-23T10:41:27.025Z,17.17
2022-12-23T10:42:29.496Z,16.18
2022-12-23T10:43:32.031Z,13.51
2022-12-23T10:44:34.563Z,28.70
2022-12-23T10:45:37.126Z,12.79
2022-12-23T10:46:40.515Z,16.61
2022-12-23T10:47:43.072Z,17.37
2022-12-23T10:48:45.652Z,31.42
2022-12-23T10:49:48.186Z,39.07
2022-12-23T10:50:51.230Z,24.81
2022-12-23T10:51:55.140Z,25.08
2022-12-23T10:52:57.722Z,15.83
2022-12-23T10:54:00.290Z,19.81
2022-12-23T10:55:02.816Z,17.74
2022-12-23T10:56:05.811Z,18.54
2022-12-23T10:57:08.366Z,26.37
2022-12-23T10:58:10.901Z,17.06
2022-12-23T10:59:13.433Z,18.51
2022-12-23T11:00:16.252Z,20.29
2022-12-23T11:01:26.626Z,16.77
2022-12-23T11:02:23.485Z,18.19
2022-12-23T11:03:26.410Z,16.06
2022-12-23T11:04:29.233Z,19.11
2022-12-23T11:05:31.973Z,18.66
2022-12-23T11:06:37.468Z,19.56
2022-12-23T11:07:44.784Z,17.58
2022-12-23T11:08:43.403Z,16.84
2022-12-23T11:09:45.922Z,18.13
2022-12-23T11:10:48.662Z,19.23
2022-12-23T11:11:51.291Z,15.33
2022-12-23T11:12:53.917Z,16.63
2022-12-23T11:13:56.480Z,20.00
2022-12-23T11:14:59.006Z,16.43
2022-12-23T11:16:01.634Z,15.29
2022-12-23T11:17:04.393Z,12.76
2022-12-23T11:18:06.918Z,20.98
2022-12-23T11:19:09.381Z,13.88
2022-12-23T11:20:12.410Z,12.02
2022-12-23T11:21:14.965Z,14.67
2022-12-23T11:22:17.399Z,16.33
2022-12-23T11:23:20.039Z,12.85
2022-12-23T11:24:22.625Z,12.15
2022-12-23T11:25:25.157Z,15.35
2022-12-23T11:26:27.854Z,12.87
2022-12-23T11:27:30.388Z,14.73
2022-12-23T11:28:32.925Z,11.56
2022-12-23T11:29:35.491Z,12.90
2022-12-23T11:30:38.122Z,13.47
2022-12-23T11:31:40.709Z,17.89
2022-12-23T11:32:43.818Z,12.78
2022-12-23T11:33:46.350Z,15.33
2022-12-23T11:34:49.060Z,16.50
2022-12-23T11:35:51.590Z,11.87
2022-12-23T11:36:58.686Z,13.68
2022-12-23T11:37:59.758Z,15.08
2022-12-23T11:39:02.398Z,15.05
2022-12-23T11:40:05.304Z,13.88
2022-12-23T11:41:07.833Z,16.37
2022-12-23T11:42:10.363Z,16.23
2022-12-23T11:43:12.897Z,14.05
2022-12-23T11:44:15.439Z,16.00
2022-12-23T11:45:18.368Z,17.91
2022-12-23T11:46:21.305Z,14.94
2022-12-23T11:47:24.066Z,15.40
2022-12-23T11:48:26.598Z,15.99
2022-12-23T11:49:29.173Z,15.38
2022-12-23T11:50:31.952Z,18.07
2022-12-23T11:51:34.519Z,15.27
2022-12-23T11:52:37.047Z,15.06
2022-12-23T11:53:39.585Z,15.05
2022-12-23T11:54:42.133Z,14.48
2022-12-23T11:55:44.711Z,18.05
2022-12-23T11:56:47.387Z,14.06
2022-12-23T11:57:49.984Z,21.94
2022-12-23T11:58:52.557Z,17.75
2022-12-23T11:59:55.052Z,15.64
2022-12-23T12:00:58.450Z,16.90
2022-12-23T12:02:01.061Z,15.87
2022-12-23T12:03:03.806Z,18.59
2022-12-23T12:04:06.590Z,16.81
2022-12-23T12:05:09.116Z,18.03
2022-12-23T12:06:13.197Z,18.01
2022-12-23T12:07:15.848Z,17.81
2022-12-23T12:08:18.378Z,18.79
2022-12-23T12:09:20.927Z,22.03
2022-12-23T12:10:23.830Z,16.82
2022-12-23T12:11:26.397Z,17.08
2022-12-23T12:12:28.999Z,19.19
2022-12-23T12:13:31.520Z,17.11
2022-12-23T12:14:34.062Z,15.99
2022-12-23T12:15:36.583Z,17.01
2022-12-23T12:16:40.154Z,16.59
2022-12-23T12:17:42.943Z,14.49
2022-12-23T12:18:48.028Z,14.95
2022-12-23T12:19:49.867Z,14.87
2022-12-23T12:20:53.006Z,13.22
2022-12-23T12:21:55.572Z,16.15
2022-12-23T12:22:58.156Z,12.65
2022-12-23T12:24:17.674Z,13.43
2022-12-23T12:25:05.066Z,10.86
2022-12-23T12:26:08.560Z,11.91
2022-12-23T12:27:11.130Z,11.10
2022-12-23T12:28:13.778Z,10.89
2022-12-23T12:29:16.300Z,11.99
2022-12-23T12:30:20.165Z,11.36
2022-12-23T12:31:22.768Z,12.41
2022-12-23T12:32:25.448Z,15.78
2022-12-23T12:33:28.247Z,9.67
2022-12-23T12:34:30.786Z,15.03
2022-12-23T12:35:33.311Z,15.31
2022-12-23T12:36:36.209Z,12.16
2022-12-23T12:37:39.430Z,10.21
2022-12-23T12:38:42.043Z,11.35
2022-12-23T12:39:44.607Z,12.19
2022-12-23T12:40:47.450Z,9.54
2022-12-23T12:41:49.975Z,10.85
2022-12-23T12:42:52.547Z,15.39
2022-12-23T12:43:55.075Z,11.47
2022-12-23T12:44:57.606Z,10.55
2022-12-23T12:46:00.284Z,10.65
2022-12-23T12:47:15.939Z,16.37
2022-12-23T12:48:16.455Z,16.64
2022-12-23T12:49:11.898Z,13.72
2022-12-23T12:50:15.475Z,13.03
2022-12-23T12:51:18.000Z,13.08
2022-12-23T12:52:20.451Z,15.58
2022-12-23T12:53:23.020Z,17.13
2022-12-23T12:54:27.069Z,20.48
2022-12-23T12:55:29.674Z,17.06
2022-12-23T12:56:32.399Z,19.59
2022-12-23T12:57:34.927Z,24.18
2022-12-23T12:58:37.570Z,23.44
2022-12-23T12:59:40.119Z,17.45
2022-12-23T13:00:43.287Z,15.24
2022-12-23T13:01:45.877Z,15.16
2022-12-23T13:02:48.802Z,13.89
2022-12-23T13:03:51.768Z,14.34
2022-12-23T13:04:55.333Z,14.38
2022-12-23T13:05:57.869Z,16.59
2022-12-23T13:07:00.895Z,16.38
2022-12-23T13:08:06.593Z,17.99
2022-12-23T13:09:09.174Z,18.89
2022-12-23T13:10:12.436Z,15.39
2022-12-23T13:11:14.978Z,18.27
2022-12-23T13:12:17.513Z,26.02
2022-12-23T13:13:20.079Z,26.43
2022-12-23T13:14:22.610Z,25.07
2022-12-23T13:15:25.182Z,21.47
2022-12-23T13:16:28.038Z,15.98
2022-12-23T13:17:30.983Z,16.27
2022-12-23T13:18:33.585Z,17.11
2022-12-23T13:19:36.163Z,17.41
2022-12-23T13:20:41.100Z,13.76
2022-12-23T13:21:43.622Z,13.04
2022-12-23T13:22:46.186Z,14.08
2022-12-23T13:23:48.723Z,13.01
2022-12-23T13:24:51.343Z,12.27
2022-12-23T13:25:55.124Z,14.69
2022-12-23T13:26:58.043Z,12.69
2022-12-23T13:28:00.602Z,16.19
2022-12-23T13:29:03.137Z,14.61
2022-12-23T13:30:06.155Z,15.91